createdAt,value
2019-03-18T00:00:18.016Z,70.00
2019-03-18T00:02:46.725Z,70.10
2019-03-18T00:05:16.407Z,70.10
2019-03-18T00:07:45.122Z,69.90
2019-03-18T00:10:13.882Z,70.00
2019-03-18T00:12:42.561Z,70.00
2019-03-18T00:15:11.301Z,70.10
2019-03-18T00:17:40.107Z,70.10
2019-03-18T00:20:10.226Z,71.00
2019-03-18T00:22:38.959Z,70.20
2019-03-18T00:25:12.261Z,70.20
2019-03-18T00:27:40.968Z,70.00
2019-03-18T00:30:14.838Z,69.90
2019-03-18T00:32:44.570Z,69.90
2019-03-18T00:35:13.276Z,69.80
2019-03-18T00:37:42.013Z,69.70
2019-03-18T00:40:15.150Z,69.80
2019-03-18T00:42:43.721Z,70.10
2019-03-18T00:45:15.034Z,70.20
2019-03-18T00:47:42.831Z,70.30
2019-03-18T00:50:16.206Z,70.40
2019-03-18T00:52:45.019Z,70.10
2019-03-18T00:55:13.717Z,70.10
2019-03-18T00:57:42.357Z,70.10
2019-03-18T01:00:17.828Z,70.30
2019-03-18T01:02:49.429Z,70.40
2019-03-18T01:05:18.439Z,70.60
2019-03-18T01:07:47.065Z,70.90
2019-03-18T01:10:16.888Z,71.20
2019-03-18T01:12:45.467Z,71.50
2019-03-18T01:15:26.828Z,71.70
2019-03-18T01:17:44.748Z,71.90
2019-03-18T01:20:14.239Z,71.90
2019-03-18T01:22:42.944Z,71.80
2019-03-18T01:25:12.605Z,71.80
2019-03-18T01:27:41.549Z,71.70
2019-03-18T01:30:12.345Z,71.70
2019-03-18T01:32:40.911Z,71.50
2019-03-18T01:35:11.024Z,71.40
2019-03-18T01:37:39.717Z,71.20
2019-03-18T01:40:11.351Z,71.00
2019-03-18T01:42:40.054Z,70.80
2019-03-18T01:45:10.200Z,70.60
2019-03-18T01:47:38.704Z,70.10
2019-03-18T01:50:10.381Z,69.70
2019-03-18T01:52:39.355Z,69.60
2019-03-18T01:55:08.050Z,69.50
2019-03-18T01:57:36.685Z,69.50
2019-03-18T02:00:13.652Z,69.60
2019-03-18T02:02:42.342Z,69.50
2019-03-18T02:05:11.268Z,69.50
2019-03-18T02:07:39.911Z,69.50
2019-03-18T02:10:13.507Z,69.60
2019-03-18T02:12:42.070Z,69.70
2019-03-18T02:15:12.467Z,70.10
2019-03-18T02:17:41.086Z,70.40
2019-03-18T02:20:12.255Z,70.70
2019-03-18T02:22:40.892Z,71.70
2019-03-18T02:25:10.518Z,71.40
2019-03-18T02:27:40.036Z,71.60
2019-03-18T02:30:18.926Z,72.00
2019-03-18T02:32:47.901Z,72.30
2019-03-18T02:35:16.583Z,72.80
2019-03-18T02:37:45.279Z,73.30
2019-03-18T02:40:14.068Z,73.60
2019-03-18T02:42:42.666Z,74.00
2019-03-18T02:45:11.788Z,74.40
2019-03-18T02:47:40.427Z,74.80
2019-03-18T02:50:09.872Z,75.10
2019-03-18T02:52:38.412Z,75.60
2019-03-18T02:55:08.430Z,76.10
2019-03-18T02:57:37.094Z,76.50
2019-03-18T03:00:11.384Z,76.90
2019-03-18T03:02:39.960Z,77.20
2019-03-18T03:05:10.685Z,77.40
2019-03-18T03:07:39.251Z,77.90
2019-03-18T03:10:13.625Z,78.40
2019-03-18T03:12:42.415Z,79.00
2019-03-18T03:15:12.867Z,79.10
2019-03-18T03:17:44.727Z,79.50
2019-03-18T03:20:13.345Z,79.90
2019-03-18T03:22:41.934Z,80.90
2019-03-18T03:25:11.163Z,80.40
2019-03-18T03:27:39.744Z,80.70
2019-03-18T03:30:17.172Z,80.60
2019-03-18T03:32:45.738Z,80.80
2019-03-18T03:35:14.494Z,80.90
2019-03-18T03:37:43.262Z,81.30
2019-03-18T03:40:12.662Z,81.60
2019-03-18T03:42:41.309Z,81.80
2019-03-18T03:45:12.305Z,82.10
2019-03-18T03:47:40.876Z,82.40
2019-03-18T03:50:14.477Z,82.80
2019-03-18T03:52:43.040Z,83.10
2019-03-18T03:55:12.644Z,83.30
2019-03-18T03:57:41.662Z,84.10
2019-03-18T04:00:14.533Z,84.40
2019-03-18T04:02:43.159Z,84.00
2019-03-18T04:05:12.904Z,84.00
2019-03-18T04:07:41.551Z,84.10
2019-03-18T04:10:11.655Z,84.10
2019-03-18T04:12:40.283Z,84.10
2019-03-18T04:15:11.370Z,84.10
2019-03-18T04:17:40.006Z,84.40
2019-03-18T04:20:16.283Z,84.20
2019-03-18T04:22:44.924Z,84.40
2019-03-18T04:25:13.902Z,84.30
2019-03-18T04:27:42.493Z,84.30
2019-03-18T04:30:15.617Z,84.30
2019-03-18T04:32:44.255Z,84.40
2019-03-18T04:35:12.867Z,84.30
2019-03-18T04:37:41.447Z,84.60
2019-03-18T04:40:11.586Z,84.30
2019-03-18T04:42:42.179Z,84.10
2019-03-18T04:45:11.040Z,84.20
2019-03-18T05:05:00.616Z,84.70
2019-03-18T05:07:29.202Z,85.00
2019-03-18T05:09:58.119Z,84.90
2019-03-18T05:12:27.708Z,84.60
2019-03-18T05:14:56.311Z,84.40
2019-03-18T05:17:26.950Z,84.30
2019-03-18T05:19:55.514Z,84.50
2019-03-18T05:22:24.095Z,84.50
2019-03-18T05:24:52.999Z,84.30
2019-03-18T05:27:21.625Z,84.10
2019-03-18T05:29:50.174Z,84.00
2019-03-18T05:32:18.756Z,83.90
2019-03-18T05:34:48.276Z,84.60
2019-03-18T05:37:16.881Z,82.90
2019-03-18T05:39:45.471Z,83.60
2019-03-18T05:42:15.095Z,83.60
2019-03-18T05:44:43.667Z,83.40
2019-03-18T05:47:12.277Z,83.30
2019-03-18T05:49:40.843Z,83.20
2019-03-18T05:52:09.408Z,83.00
2019-03-18T05:54:38.032Z,82.90
2019-03-18T05:57:06.618Z,82.80
2019-03-18T05:59:35.170Z,82.70
2019-03-18T06:02:03.759Z,82.50
2019-03-18T06:04:32.659Z,82.30
2019-03-18T06:07:01.215Z,82.30
2019-03-18T06:09:29.961Z,82.20
2019-03-18T06:11:58.548Z,82.20
2019-03-18T06:14:27.186Z,82.20
2019-03-18T06:16:56.661Z,82.00
2019-03-18T06:19:25.289Z,81.60
2019-03-18T06:21:53.891Z,81.30
2019-03-18T06:24:22.458Z,80.90
2019-03-18T06:26:51.969Z,81.00
2019-03-18T06:29:20.585Z,80.50
2019-03-18T06:31:51.133Z,80.30
2019-03-18T06:34:19.728Z,80.30
2019-03-18T06:36:50.292Z,79.90
2019-03-18T06:39:18.857Z,79.50
2019-03-18T06:41:47.481Z,78.20
2019-03-18T06:44:16.042Z,77.60
2019-03-18T06:46:44.705Z,77.30
2019-03-18T06:49:13.795Z,78.50
2019-03-18T06:51:42.367Z,77.60
2019-03-18T06:54:11.268Z,77.90
2019-03-18T06:56:39.859Z,76.50
2019-03-18T06:59:08.420Z,77.30
2019-03-18T07:01:39.766Z,75.20
2019-03-18T07:04:08.340Z,75.50
2019-03-18T07:06:36.918Z,75.50
2019-03-18T07:09:06.662Z,75.10
2019-03-18T07:11:35.225Z,74.80
2019-03-18T07:14:04.221Z,73.70
2019-03-18T07:16:32.887Z,73.00
2019-03-18T07:19:01.490Z,72.80
2019-03-18T07:21:30.065Z,72.90
2019-03-18T07:23:58.724Z,72.80
2019-03-18T07:26:27.358Z,72.40
2019-03-18T07:28:55.929Z,71.80
2019-03-18T07:31:24.513Z,70.70
2019-03-18T07:33:55.131Z,69.20
2019-03-18T07:36:23.707Z,68.70
2019-03-18T07:38:52.365Z,67.40
2019-03-18T07:41:21.094Z,66.50
2019-03-18T07:43:50.084Z,65.50
2019-03-18T07:46:18.665Z,65.90
2019-03-18T07:48:47.277Z,66.80
2019-03-18T07:51:15.837Z,66.80
2019-03-18T07:53:45.355Z,66.80
2019-03-18T07:56:13.949Z,66.50
2019-03-18T07:58:42.549Z,66.20
2019-03-18T08:01:11.197Z,64.60
2019-03-18T08:03:39.795Z,63.50
2019-03-18T08:06:08.387Z,63.10
2019-03-18T08:08:37.047Z,62.00
2019-03-18T08:11:05.726Z,60.50
2019-03-18T08:13:36.287Z,59.00
2019-03-18T08:16:04.934Z,59.00
2019-03-18T08:18:42.669Z,57.10
2019-03-18T08:21:04.165Z,55.60
2019-03-18T08:23:32.789Z,51.90
2019-03-18T08:26:01.355Z,48.30
2019-03-18T08:28:29.920Z,46.50
2019-03-18T08:30:58.482Z,42.80
2019-03-18T08:33:28.004Z,42.00
2019-03-18T08:35:56.614Z,41.70
2019-03-18T08:38:25.172Z,42.70
2019-03-18T08:40:53.756Z,43.80
2019-03-18T08:43:22.367Z,45.60
2019-03-18T08:45:50.957Z,47.10
2019-03-18T08:48:19.529Z,47.70
2019-03-18T08:50:48.125Z,48.80
2019-03-18T08:53:16.711Z,49.10
2019-03-18T08:55:46.269Z,49.60
2019-03-18T08:58:14.922Z,49.00
2019-03-18T09:00:43.496Z,48.50
2019-03-18T09:03:12.108Z,48.80
2019-03-18T09:05:40.797Z,48.90
2019-03-18T09:08:09.383Z,48.80
2019-03-18T09:10:37.965Z,46.70
2019-03-18T09:13:06.565Z,46.90
2019-03-18T09:15:35.142Z,46.60
2019-03-18T09:18:03.788Z,46.40
2019-03-18T09:20:32.390Z,46.90
2019-03-18T09:23:01.605Z,46.90
2019-03-18T09:25:30.470Z,46.80
2019-03-18T09:27:59.194Z,46.90
2019-03-18T09:30:27.725Z,46.90
2019-03-18T09:32:56.361Z,47.90
2019-03-18T09:35:24.913Z,48.40
2019-03-18T09:37:53.868Z,48.00
2019-03-18T09:40:22.642Z,48.10
2019-03-18T09:42:51.213Z,47.40
2019-03-18T09:45:20.048Z,47.20
2019-03-18T09:47:48.614Z,46.70
2019-03-18T09:50:17.260Z,46.70
2019-03-18T09:52:45.880Z,47.00
2019-03-18T09:55:14.532Z,47.50
2019-03-18T09:57:43.401Z,47.60
2019-03-18T10:00:15.909Z,47.80
2019-03-18T10:02:43.762Z,47.80
2019-03-18T10:05:12.388Z,47.60
2019-03-18T10:07:41.081Z,47.80
2019-03-18T10:10:11.289Z,47.90
2019-03-18T10:12:39.857Z,48.20
2019-03-18T10:15:14.359Z,48.00
2019-03-18T10:17:42.932Z,48.10
2019-03-18T10:20:11.723Z,48.50
2019-03-18T10:22:40.353Z,49.00
2019-03-18T10:25:09.359Z,49.40
2019-03-18T10:27:38.170Z,49.40
2019-03-18T10:30:15.114Z,48.80
2019-03-18T10:32:43.663Z,49.20
2019-03-18T10:35:12.411Z,49.00
2019-03-18T10:37:41.032Z,49.10
2019-03-18T10:40:11.798Z,49.30
2019-03-18T10:42:40.395Z,49.60
2019-03-18T10:45:13.079Z,49.10
2019-03-18T10:47:41.861Z,49.40
2019-03-18T10:50:12.946Z,48.40
2019-03-18T10:52:41.547Z,48.50
2019-03-18T10:55:10.601Z,48.70
2019-03-18T10:57:39.214Z,48.60
2019-03-18T11:00:14.009Z,49.20
2019-03-18T11:02:45.116Z,48.20
2019-03-18T11:05:13.352Z,48.30
2019-03-18T11:07:41.941Z,48.20
2019-03-18T11:10:12.868Z,47.70
2019-03-18T11:12:41.668Z,47.60
2019-03-18T11:15:13.292Z,48.60
2019-03-18T11:17:41.879Z,47.10
2019-03-18T11:20:12.812Z,47.40
2019-03-18T11:22:41.611Z,47.50
2019-03-18T11:25:12.098Z,47.70
2019-03-18T11:27:40.773Z,47.30
2019-03-18T11:30:17.440Z,48.40
2019-03-18T11:32:46.005Z,47.70
2019-03-18T11:35:14.600Z,48.00
2019-03-18T11:37:43.280Z,48.50
2019-03-18T11:40:16.604Z,48.50
2019-03-18T11:42:45.137Z,48.40
2019-03-18T11:45:15.487Z,48.00
2019-03-18T11:47:44.139Z,47.10
2019-03-18T11:50:13.968Z,48.40
2019-03-18T11:52:42.728Z,48.80
2019-03-18T11:55:19.512Z,48.70
2019-03-18T11:57:48.178Z,49.30
2019-03-18T12:00:22.490Z,49.90
2019-03-18T12:02:51.128Z,49.90
2019-03-18T12:05:24.709Z,50.40
2019-03-18T12:07:53.391Z,50.50
2019-03-18T12:10:25.158Z,50.60
2019-03-18T12:12:52.318Z,50.40
2019-03-18T12:15:26.126Z,50.20
2019-03-18T12:17:55.172Z,49.80
2019-03-18T12:20:25.484Z,49.80
2019-03-18T12:22:54.277Z,50.00
2019-03-18T12:25:22.883Z,50.40
2019-03-18T12:27:52.509Z,50.80
2019-03-18T12:30:22.529Z,51.00
2019-03-18T12:32:51.195Z,51.30
2019-03-18T12:35:19.817Z,51.30
2019-03-18T12:37:48.637Z,51.10
2019-03-18T12:40:17.754Z,51.30
2019-03-18T12:42:46.587Z,51.40
2019-03-18T12:45:17.551Z,51.70
2019-03-18T12:47:46.122Z,51.90
2019-03-18T12:50:36.470Z,51.90
2019-03-18T12:52:50.123Z,51.50
2019-03-18T12:55:18.781Z,50.80
2019-03-18T12:57:47.693Z,50.50
2019-03-18T13:00:24.743Z,50.80
2019-03-18T13:02:53.356Z,51.30
2019-03-18T13:05:22.078Z,51.90
2019-03-18T13:07:50.706Z,52.30
2019-03-18T13:10:21.872Z,52.80
2019-03-18T13:12:50.856Z,52.90
2019-03-18T13:15:20.163Z,53.30
2019-03-18T13:17:48.834Z,53.20
2019-03-18T13:20:18.745Z,53.10
2019-03-18T13:22:47.369Z,53.00
2019-03-18T13:25:16.081Z,52.90
2019-03-18T13:27:44.719Z,53.10
2019-03-18T13:30:17.918Z,53.20
2019-03-18T13:32:46.942Z,52.70
2019-03-18T13:35:15.670Z,52.70
2019-03-18T13:37:44.421Z,52.30
2019-03-18T13:40:14.541Z,51.80
2019-03-18T13:42:43.177Z,50.70
2019-03-18T13:45:20.982Z,50.00
2019-03-18T13:47:49.633Z,49.70
2019-03-18T13:50:22.216Z,49.90
2019-03-18T13:52:50.172Z,49.40
2019-03-18T13:55:18.926Z,49.50
2019-03-18T13:57:47.605Z,49.50
2019-03-18T14:00:20.017Z,49.60
2019-03-18T14:02:48.687Z,49.60
2019-03-18T14:05:17.357Z,49.40
2019-03-18T14:07:58.838Z,49.30
2019-03-18T14:10:23.555Z,49.40
2019-03-18T14:12:52.136Z,49.20
2019-03-18T14:15:21.963Z,49.10
2019-03-18T14:17:50.670Z,49.20
2019-03-18T14:20:21.838Z,49.40
2019-03-18T14:22:50.463Z,49.40
2019-03-18T14:25:19.049Z,49.80
2019-03-18T14:27:47.671Z,50.00
2019-03-18T14:30:20.646Z,50.10
2019-03-18T14:32:49.280Z,50.40
2019-03-18T14:35:21.674Z,50.30
2019-03-18T14:37:48.239Z,50.10
2019-03-18T14:40:18.738Z,49.90
2019-03-18T14:42:47.385Z,49.60
2019-03-18T14:45:18.517Z,49.50
2019-03-18T14:47:47.200Z,48.90
2019-03-18T14:50:16.939Z,48.60
2019-03-18T14:52:45.563Z,48.30
2019-03-18T14:55:17.699Z,48.30
2019-03-18T14:57:46.341Z,48.50
2019-03-18T15:00:25.785Z,48.70
2019-03-18T15:02:54.408Z,49.10
2019-03-18T15:05:23.034Z,49.10
2019-03-18T15:07:51.583Z,49.10
2019-03-18T15:10:22.807Z,49.20
2019-03-18T15:12:51.374Z,49.30
2019-03-18T15:15:20.393Z,48.90
2019-03-18T15:17:49.034Z,48.40
2019-03-18T15:20:23.463Z,48.30
2019-03-18T15:22:52.408Z,48.20
2019-03-18T15:25:22.982Z,48.00
2019-03-18T15:27:51.564Z,47.70
2019-03-18T15:30:23.163Z,47.60
2019-03-18T15:32:51.749Z,47.60
2019-03-18T15:35:20.458Z,47.90
2019-03-18T15:37:49.064Z,48.20
2019-03-18T15:40:26.017Z,48.40
2019-03-18T15:42:54.657Z,48.70
2019-03-18T15:45:23.587Z,48.90
2019-03-18T15:47:52.324Z,49.20
2019-03-18T15:50:23.402Z,49.60
2019-03-18T15:52:53.038Z,49.80
2019-03-18T15:55:24.145Z,50.10
2019-03-18T15:57:53.749Z,50.30
2019-03-18T16:00:30.474Z,50.50
2019-03-18T16:02:59.615Z,50.70
2019-03-18T16:05:29.211Z,50.80
2019-03-18T16:07:57.833Z,50.90
2019-03-18T16:10:26.385Z,51.10
2019-03-18T16:12:54.952Z,51.20
2019-03-18T16:15:23.617Z,51.20
2019-03-18T16:17:52.188Z,51.40
2019-03-18T16:20:24.546Z,51.40
2019-03-18T16:22:53.192Z,51.40
2019-03-18T16:25:21.815Z,51.50
2019-03-18T16:27:50.720Z,51.50
2019-03-18T16:30:20.459Z,51.60
2019-03-18T16:32:49.140Z,51.50
2019-03-18T16:35:18.165Z,51.40
2019-03-18T16:37:46.759Z,51.40
2019-03-18T16:40:19.499Z,51.60
2019-03-18T16:42:48.187Z,51.60
2019-03-18T16:45:17.810Z,51.80
2019-03-18T16:47:46.854Z,51.90
2019-03-18T16:50:21.010Z,52.20
2019-03-18T16:52:49.714Z,52.40
2019-03-18T16:55:18.400Z,52.70
2019-03-18T16:57:47.474Z,52.90
2019-03-18T17:00:18.753Z,53.30
2019-03-18T17:02:47.440Z,53.50
2019-03-18T17:05:16.092Z,53.90
2019-03-18T17:07:44.880Z,54.10
2019-03-18T17:10:14.542Z,54.30
2019-03-18T17:12:43.169Z,54.50
2019-03-18T17:15:19.844Z,54.80
2019-03-18T17:17:48.401Z,55.00
2019-03-18T17:20:17.576Z,55.30
2019-03-18T17:22:50.425Z,55.40
2019-03-18T17:25:22.112Z,55.50
2019-03-18T17:27:50.756Z,55.50
2019-03-18T17:30:20.167Z,55.60
2019-03-18T17:32:48.720Z,55.60
2019-03-18T17:35:17.328Z,55.60
2019-03-18T17:37:45.938Z,55.70
2019-03-18T17:40:15.838Z,55.80
2019-03-18T17:42:44.553Z,55.80
2019-03-18T17:45:18.155Z,55.80
2019-03-18T17:47:46.774Z,55.90
2019-03-18T17:50:27.417Z,55.90
2019-03-18T17:53:03.005Z,55.90
2019-03-18T17:55:26.277Z,56.10
2019-03-18T17:57:54.878Z,56.40
2019-03-18T18:00:25.085Z,56.90
2019-03-18T18:02:53.668Z,56.50
2019-03-18T18:05:22.315Z,56.60
2019-03-18T18:07:50.815Z,56.70
2019-03-18T18:10:19.557Z,56.90
2019-03-18T18:12:48.237Z,57.00
2019-03-18T18:15:16.787Z,57.10
2019-03-18T18:17:45.478Z,57.20
2019-03-18T18:20:15.278Z,57.40
2019-03-18T18:22:44.038Z,57.40
2019-03-18T18:25:14.616Z,57.50
2019-03-18T18:27:43.257Z,57.40
2019-03-18T18:30:16.742Z,57.40
2019-03-18T18:32:52.250Z,57.40
2019-03-18T18:35:20.852Z,57.40
2019-03-18T18:37:49.464Z,57.40
2019-03-18T18:40:20.305Z,57.40
2019-03-18T18:42:48.998Z,57.30
2019-03-18T18:45:17.499Z,57.50
2019-03-18T18:47:46.434Z,57.50
2019-03-18T18:50:15.350Z,57.70
2019-03-18T18:52:43.927Z,57.70
2019-03-18T18:55:14.522Z,57.70
2019-03-18T18:57:43.098Z,57.80
2019-03-18T19:00:18.858Z,58.00
2019-03-18T19:02:47.523Z,58.10
2019-03-18T19:05:16.938Z,58.20
2019-03-18T19:07:45.883Z,58.40
2019-03-18T19:10:16.765Z,58.50
2019-03-18T19:12:45.425Z,58.90
2019-03-18T19:15:29.750Z,58.80
2019-03-18T19:17:58.301Z,58.90
2019-03-18T19:20:26.900Z,59.00
2019-03-18T19:22:55.470Z,59.00
2019-03-18T19:25:24.153Z,59.10
2019-03-18T19:27:53.688Z,59.30
2019-03-18T19:30:23.195Z,59.40
2019-03-18T19:32:52.364Z,59.60
2019-03-18T19:35:20.936Z,59.50
2019-03-18T19:37:49.632Z,59.50
2019-03-18T19:40:22.703Z,60.40
2019-03-18T19:42:53.923Z,59.80
2019-03-18T19:45:22.520Z,60.00
2019-03-18T19:47:53.202Z,60.10
2019-03-18T19:50:23.557Z,60.40
2019-03-18T19:52:52.126Z,60.60
2019-03-18T19:55:20.833Z,60.70
2019-03-18T19:57:49.505Z,61.10
2019-03-18T20:00:22.685Z,61.00
2019-03-18T20:02:52.456Z,61.20
2019-03-18T20:05:21.145Z,61.40
2019-03-18T20:07:49.798Z,61.50
2019-03-18T20:10:19.931Z,61.80
2019-03-18T20:12:48.584Z,62.00
2019-03-18T20:15:19.157Z,62.20
2019-03-18T20:17:48.054Z,62.50
2019-03-18T20:20:19.765Z,62.70
2019-03-18T20:22:48.328Z,63.00
2019-03-18T20:25:17.044Z,63.30
2019-03-18T20:27:45.740Z,63.40
2019-03-18T20:30:21.103Z,63.50
2019-03-18T20:32:49.796Z,63.90
2019-03-18T20:35:22.039Z,64.00
2019-03-18T20:37:52.022Z,64.30
2019-03-18T20:40:21.196Z,64.50
2019-03-18T20:42:49.768Z,64.50
2019-03-18T20:45:20.367Z,64.70
2019-03-18T20:47:49.076Z,65.00
2019-03-18T20:50:18.742Z,65.00
2019-03-18T20:52:47.440Z,65.10
2019-03-18T20:55:16.441Z,65.20
2019-03-18T20:57:45.110Z,65.30
2019-03-18T21:00:16.855Z,65.30
2019-03-18T21:02:45.508Z,65.40
2019-03-18T21:05:14.254Z,65.50
2019-03-18T21:07:42.976Z,65.60
2019-03-18T21:10:16.618Z,65.60
2019-03-18T21:12:46.252Z,65.80
2019-03-18T21:15:17.187Z,66.00
2019-03-18T21:17:45.825Z,66.10
2019-03-18T21:20:18.332Z,66.30
2019-03-18T21:22:47.228Z,66.30
2019-03-18T21:25:15.927Z,66.30
2019-03-18T21:27:44.517Z,66.40
2019-03-18T21:30:15.538Z,66.50
2019-03-18T21:32:44.218Z,66.60
2019-03-18T21:35:12.981Z,66.70
2019-03-18T21:37:41.854Z,66.80
2019-03-18T21:40:20.654Z,67.00
2019-03-18T21:42:49.330Z,67.10
2019-03-18T21:45:23.632Z,67.30
2019-03-18T21:47:53.153Z,67.30
2019-03-18T21:50:23.737Z,67.30
2019-03-18T21:52:52.301Z,67.50
2019-03-18T21:55:20.950Z,67.80
2019-03-18T21:57:49.665Z,68.00
2019-03-18T22:00:19.395Z,68.10
2019-03-18T22:02:48.059Z,68.30
2019-03-18T22:05:16.717Z,68.30
2019-03-18T22:07:45.339Z,68.50
2019-03-18T22:10:18.618Z,68.50
2019-03-18T22:12:47.413Z,68.50
2019-03-18T22:15:16.656Z,68.60
2019-03-18T22:17:45.372Z,68.60
2019-03-18T22:20:16.366Z,69.40
2019-03-18T22:22:45.076Z,68.90
2019-03-18T22:25:14.528Z,69.10
2019-03-18T22:27:45.291Z,69.10
2019-03-18T22:30:17.919Z,69.20
2019-03-18T22:32:46.840Z,69.20
2019-03-18T22:35:15.612Z,69.30
2019-03-18T22:37:44.655Z,69.40
2019-03-18T22:40:15.878Z,70.50
2019-03-18T22:42:44.511Z,69.60
2019-03-18T22:45:15.209Z,70.30
2019-03-18T22:47:44.172Z,70.10
2019-03-18T22:50:13.833Z,69.60
2019-03-18T22:52:42.397Z,69.20
2019-03-18T22:55:14.498Z,69.20
2019-03-18T22:57:43.124Z,69.80
2019-03-18T23:00:26.078Z,69.60
2019-03-18T23:02:54.779Z,69.50
2019-03-18T23:05:23.516Z,69.80
2019-03-18T23:07:52.227Z,70.10
2019-03-18T23:10:20.817Z,69.90
2019-03-18T23:12:49.516Z,71.10
2019-03-18T23:15:18.115Z,70.40
2019-03-18T23:17:46.690Z,70.30
2019-03-18T23:20:15.315Z,69.80
2019-03-18T23:22:43.944Z,70.20
2019-03-18T23:25:12.632Z,70.00
2019-03-18T23:27:41.258Z,70.10
2019-03-18T23:30:11.981Z,70.60
2019-03-18T23:32:41.539Z,70.30
2019-03-18T23:35:15.948Z,70.70
2019-03-18T23:37:44.527Z,70.70
2019-03-18T23:40:13.969Z,70.50
2019-03-18T23:42:42.544Z,70.50
2019-03-18T23:45:12.051Z,70.70
2019-03-18T23:47:40.966Z,70.70
2019-03-18T23:50:12.169Z,70.90
2019-03-18T23:52:40.817Z,70.90
2019-03-18T23:55:18.135Z,71.30
2019-03-18T23:57:40.317Z,71.30
